createdAt,value
2022-08-18T00:00:53.614Z,4.30
2022-08-18T00:04:58.018Z,4.50
2022-08-18T00:09:02.550Z,4.88
2022-08-18T00:13:06.685Z,4.85
2022-08-18T00:17:09.744Z,5.05
2022-08-18T00:21:12.763Z,4.25
2022-08-18T00:25:17.434Z,4.82
2022-08-18T00:29:21.883Z,4.22
2022-08-18T00:33:24.697Z,4.60
2022-08-18T00:37:27.934Z,5.22
2022-08-18T00:41:31.038Z,4.80
2022-08-18T00:45:37.570Z,4.47
2022-08-18T00:49:43.371Z,4.78
2022-08-18T00:53:50.014Z,4.85
2022-08-18T00:57:58.599Z,4.70
2022-08-18T01:02:05.803Z,4.88
2022-08-18T01:06:16.479Z,4.93
2022-08-18T01:10:23.334Z,5.03
2022-08-18T01:14:26.568Z,4.97
2022-08-18T01:18:48.139Z,5.95
2022-08-18T01:23:01.482Z,5.97
2022-08-18T01:27:04.371Z,5.10
2022-08-18T01:31:09.067Z,6.13
2022-08-18T01:35:14.278Z,5.40
2022-08-18T01:41:21.838Z,5.55
2022-08-18T01:43:41.251Z,5.55
2022-08-18T01:47:57.338Z,5.65
2022-08-18T01:52:00.119Z,5.90
2022-08-18T01:56:05.280Z,5.65
2022-08-18T02:00:10.129Z,5.20
2022-08-18T02:04:34.388Z,4.80
2022-08-18T02:08:39.265Z,5.03
2022-08-18T02:12:47.739Z,5.60
2022-08-18T02:16:50.454Z,4.95
2022-08-18T02:20:53.282Z,4.93
2022-08-18T02:24:58.249Z,5.15
2022-08-18T02:29:02.387Z,4.75
2022-08-18T02:33:05.435Z,5.45
2022-08-18T02:37:10.884Z,5.25
2022-08-18T02:41:17.282Z,4.68
2022-08-18T02:45:23.099Z,4.30
2022-08-18T02:49:25.886Z,5.05
2022-08-18T02:53:29.407Z,5.10
2022-08-18T02:57:32.634Z,4.80
2022-08-18T03:01:39.574Z,4.60
2022-08-18T03:05:42.691Z,5.15
2022-08-18T03:09:45.450Z,4.95
2022-08-18T03:13:48.545Z,5.32
2022-08-18T03:17:52.772Z,5.18
2022-08-18T03:21:58.171Z,5.38
2022-08-18T03:26:02.057Z,5.40
2022-08-18T03:30:05.735Z,5.13
2022-08-18T03:34:16.234Z,4.87
2022-08-18T03:38:19.055Z,5.03
2022-08-18T03:42:21.803Z,5.13
2022-08-18T03:46:24.958Z,4.50
2022-08-18T03:50:29.582Z,4.60
2022-08-18T03:54:33.368Z,4.78
2022-08-18T03:58:36.859Z,5.18
2022-08-18T04:02:39.767Z,5.22
2022-08-18T04:06:45.908Z,5.65
2022-08-18T04:10:48.676Z,5.20
2022-08-18T04:14:51.816Z,4.85
2022-08-18T04:18:55.416Z,5.10
2022-08-18T04:23:00.628Z,5.03
2022-08-18T04:27:04.871Z,4.47
2022-08-18T04:31:10.271Z,5.00
2022-08-18T04:35:14.269Z,4.43
2022-08-18T04:39:18.456Z,4.70
2022-08-18T04:43:21.182Z,4.18
2022-08-18T04:47:24.047Z,4.90
2022-08-18T04:52:34.278Z,4.75
2022-08-18T04:55:56.111Z,5.00
2022-08-18T04:59:59.075Z,4.43
2022-08-18T05:04:02.078Z,4.82
2022-08-18T05:08:05.534Z,4.45
2022-08-18T05:12:12.486Z,4.63
2022-08-18T05:16:27.528Z,4.70
2022-08-18T05:20:30.643Z,4.68
2022-08-18T05:24:37.449Z,5.00
2022-08-18T05:28:42.929Z,4.82
2022-08-18T05:32:49.946Z,4.60
2022-08-18T05:37:05.741Z,4.00
2022-08-18T05:41:13.666Z,4.32
2022-08-18T05:45:20.667Z,4.30
2022-08-18T05:49:27.278Z,4.95
2022-08-18T05:53:44.205Z,5.18
2022-08-18T05:57:51.616Z,5.57
2022-08-18T06:02:01.738Z,5.57
2022-08-18T06:10:17.251Z,4.90
2022-08-18T06:14:20.154Z,5.07
2022-08-18T06:18:38.370Z,4.53
2022-08-18T06:22:52.468Z,4.88
2022-08-18T06:27:03.252Z,5.15
2022-08-18T06:31:17.595Z,4.82
2022-08-18T06:35:30.896Z,4.47
2022-08-18T06:39:45.867Z,4.45
2022-08-18T06:43:59.877Z,5.13
2022-08-18T06:48:15.717Z,4.47
2022-08-18T06:52:26.359Z,4.28
2022-08-18T06:56:37.303Z,3.95
2022-08-18T07:00:44.401Z,4.35
2022-08-18T07:05:05.335Z,3.88
2022-08-18T07:09:25.035Z,4.38
2022-08-18T07:13:30.244Z,4.00
2022-08-18T07:17:42.455Z,4.45
2022-08-18T07:21:46.030Z,3.42
2022-08-18T07:25:59.559Z,3.80
2022-08-18T07:30:06.390Z,3.50
2022-08-18T07:34:13.449Z,3.55
2022-08-18T07:38:42.779Z,3.20
2022-08-18T07:43:01.409Z,2.58
2022-08-18T07:47:11.040Z,2.20
2022-08-18T07:51:22.292Z,2.55
2022-08-18T07:55:29.886Z,2.60
2022-08-18T07:59:40.702Z,2.47
2022-08-18T08:03:52.101Z,1.73
2022-08-18T08:07:59.660Z,1.67
2022-08-18T08:12:11.387Z,1.50
2022-08-18T08:16:24.935Z,1.90
2022-08-18T08:20:34.156Z,1.23
2022-08-18T08:24:44.624Z,0.98
2022-08-18T08:28:56.538Z,0.77
2022-08-18T08:33:10.921Z,0.75
2022-08-18T08:37:17.700Z,0.55
2022-08-18T08:41:26.627Z,0.57
2022-08-18T08:45:33.276Z,0.35
2022-08-18T08:49:42.196Z,0.50
2022-08-18T08:57:54.845Z,0.73
2022-08-18T09:02:09.526Z,0.63
2022-08-18T09:06:25.666Z,0.85
2022-08-18T09:11:04.926Z,0.70
2022-08-18T09:15:34.026Z,0.90
2022-08-18T09:19:58.683Z,1.10
2022-08-18T09:24:12.531Z,0.70
2022-08-18T09:28:18.063Z,1.02
2022-08-18T09:32:57.377Z,0.63
2022-08-18T09:37:17.197Z,0.80
2022-08-18T09:41:33.424Z,0.47
2022-08-18T09:45:56.185Z,0.43
2022-08-18T09:50:38.581Z,0.30
2022-08-18T09:54:52.671Z,0.40
2022-08-18T09:59:02.058Z,0.50
2022-08-18T10:07:54.178Z,0.63
2022-08-18T10:12:21.977Z,0.47
2022-08-18T10:16:57.628Z,0.55
2022-08-18T10:21:08.680Z,0.20
2022-08-18T10:25:22.928Z,0.20
2022-08-18T10:29:55.341Z,0.10
2022-08-18T10:34:16.117Z,0.20
2022-08-18T10:38:46.055Z,0.15
2022-08-18T10:43:10.691Z,0.15
2022-08-18T10:47:25.782Z,0.00
2022-08-18T10:52:00.424Z,0.20
2022-08-18T10:56:10.194Z,0.22
2022-08-18T11:00:19.543Z,0.25
2022-08-18T11:04:33.181Z,0.10
2022-08-18T11:08:39.459Z,0.10
2022-08-18T11:13:07.283Z,0.20
2022-08-18T11:17:36.826Z,0.03
2022-08-18T11:21:45.927Z,0.00
2022-08-18T11:25:54.176Z,0.00
2022-08-18T11:30:00.935Z,0.00
2022-08-18T11:34:05.295Z,0.00
2022-08-18T11:38:20.733Z,0.10
2022-08-18T11:42:35.480Z,0.10
2022-08-18T11:46:40.755Z,0.00
2022-08-18T11:50:54.578Z,0.10
2022-08-18T11:55:02.262Z,0.30
2022-08-18T11:59:52.703Z,0.20
2022-08-18T12:03:57.509Z,0.50
2022-08-18T12:08:05.189Z,1.00
2022-08-18T12:12:18.519Z,0.80
2022-08-18T12:16:34.199Z,0.60
2022-08-18T12:20:39.099Z,0.40
2022-08-18T12:24:43.268Z,0.30
2022-08-18T12:28:46.157Z,0.20
2022-08-18T12:32:55.513Z,0.10
2022-08-18T12:37:00.983Z,0.00
2022-08-18T12:41:06.274Z,0.00
2022-08-18T12:45:10.356Z,0.00
2022-08-18T12:49:17.279Z,0.00
2022-08-18T12:57:51.719Z,0.00
2022-08-18T13:01:58.688Z,0.00
2022-08-18T13:06:03.359Z,0.00
2022-08-18T13:10:06.913Z,0.00
2022-08-18T13:14:11.009Z,0.00
2022-08-18T13:18:14.586Z,0.00
2022-08-18T13:22:18.286Z,0.00
2022-08-18T13:26:26.936Z,0.00
2022-08-18T13:30:32.843Z,0.00
2022-08-18T13:34:35.858Z,0.05
2022-08-18T13:38:40.419Z,0.10
2022-08-18T13:42:50.835Z,0.10
2022-08-18T13:46:55.497Z,0.22
2022-08-18T13:51:01.663Z,0.43
2022-08-18T13:55:08.533Z,0.57
2022-08-18T13:59:14.892Z,0.63
2022-08-18T14:03:42.687Z,0.70
2022-08-18T14:07:46.959Z,0.75
2022-08-18T14:11:51.371Z,0.80
2022-08-18T14:15:55.955Z,0.98
2022-08-18T14:20:22.048Z,1.10
2022-08-18T14:24:49.200Z,1.13
2022-08-18T14:28:52.566Z,0.85
2022-08-18T14:32:55.749Z,0.70
2022-08-18T14:37:02.412Z,0.88
2022-08-18T14:41:07.535Z,0.68
2022-08-18T14:45:18.032Z,0.90
2022-08-18T14:49:36.110Z,0.85
2022-08-18T14:53:47.131Z,1.17
2022-08-18T15:02:02.440Z,1.42
2022-08-18T15:06:06.818Z,1.42
2022-08-18T15:10:16.682Z,1.25
2022-08-18T15:14:26.671Z,1.02
2022-08-18T15:18:36.124Z,1.77
2022-08-18T15:22:57.798Z,1.60
2022-08-18T15:27:05.836Z,1.75
2022-08-18T15:31:16.860Z,1.75
2022-08-18T15:35:21.115Z,1.50
2022-08-18T15:39:23.966Z,1.90
2022-08-18T15:43:31.424Z,1.65
2022-08-18T15:47:34.914Z,1.95
2022-08-18T15:51:41.186Z,1.90
2022-08-18T15:55:44.667Z,1.50
2022-08-18T15:59:49.181Z,1.98
2022-08-18T16:03:54.463Z,2.05
2022-08-18T16:07:58.679Z,1.95
2022-08-18T16:12:02.553Z,2.40
2022-08-18T16:16:12.258Z,2.70
2022-08-18T16:24:18.795Z,3.10
2022-08-18T16:28:21.765Z,2.85
2022-08-18T16:32:39.215Z,2.72
2022-08-18T16:36:41.993Z,2.78
2022-08-18T16:40:44.734Z,2.33
2022-08-18T16:44:47.602Z,3.35
2022-08-18T16:48:51.971Z,3.30
2022-08-18T16:52:54.837Z,3.42
2022-08-18T16:56:57.597Z,3.45
2022-08-18T17:01:18.833Z,4.28
2022-08-18T17:05:23.319Z,4.65
2022-08-18T17:09:26.569Z,4.75
2022-08-18T17:13:29.629Z,3.70
2022-08-18T17:17:32.389Z,1.50
2022-08-18T17:21:37.577Z,1.73
2022-08-18T17:25:40.830Z,1.50
2022-08-18T17:29:50.747Z,1.33
2022-08-18T17:33:58.109Z,1.45
2022-08-18T17:38:07.736Z,1.13
2022-08-18T17:42:29.178Z,1.30
2022-08-18T17:46:39.250Z,1.20
2022-08-18T17:51:03.915Z,1.17
2022-08-18T17:55:11.412Z,0.82
2022-08-18T17:59:51.164Z,1.05
2022-08-18T18:03:47.514Z,0.88
2022-08-18T18:08:00.073Z,1.08
2022-08-18T18:12:21.382Z,1.30
2022-08-18T18:16:34.835Z,1.23
2022-08-18T18:20:42.171Z,1.20
2022-08-18T18:24:51.696Z,0.90
2022-08-18T18:29:12.867Z,1.02
2022-08-18T18:33:17.237Z,0.88
2022-08-18T18:37:32.406Z,1.08
2022-08-18T18:41:39.695Z,0.70
2022-08-18T18:45:57.190Z,0.93
2022-08-18T18:50:06.298Z,1.27
2022-08-18T18:54:22.542Z,1.40
2022-08-18T18:58:38.661Z,1.02
2022-08-18T19:02:54.831Z,1.10
2022-08-18T19:07:05.009Z,1.33
2022-08-18T19:15:15.905Z,1.38
2022-08-18T19:19:37.895Z,1.15
2022-08-18T19:23:46.270Z,1.27
2022-08-18T19:27:53.174Z,1.52
2022-08-18T19:32:02.162Z,1.20
2022-08-18T19:36:19.743Z,1.48
2022-08-18T19:40:29.168Z,1.10
2022-08-18T19:44:38.521Z,1.30
2022-08-18T19:48:51.335Z,1.80
2022-08-18T19:53:16.158Z,2.17
2022-08-18T19:57:30.452Z,1.90
2022-08-18T20:01:44.863Z,2.72
2022-08-18T20:06:00.648Z,3.25
2022-08-18T20:10:40.869Z,3.72
2022-08-18T20:14:43.958Z,4.03
2022-08-18T20:18:49.061Z,4.55
2022-08-18T20:22:56.956Z,4.90
2022-08-18T20:27:24.650Z,5.75
2022-08-18T20:31:45.074Z,6.20
2022-08-18T20:35:53.121Z,6.18
2022-08-18T20:39:57.912Z,9.50
2022-08-18T20:44:29.037Z,13.18
2022-08-18T20:48:45.392Z,15.00
2022-08-18T20:52:56.144Z,16.73
2022-08-18T20:57:01.541Z,14.23
2022-08-18T21:01:06.605Z,14.18
2022-08-18T21:05:16.836Z,12.75
2022-08-18T21:09:31.348Z,11.80
2022-08-18T21:13:38.352Z,11.45
2022-08-18T21:17:43.523Z,13.60
2022-08-18T21:21:56.654Z,13.05
2022-08-18T21:26:15.787Z,13.75
2022-08-18T21:30:21.726Z,12.45
2022-08-18T21:34:40.616Z,12.55
2022-08-18T21:39:05.612Z,11.32
2022-08-18T21:43:10.289Z,12.25
2022-08-18T21:47:20.453Z,11.32
2022-08-18T21:55:32.825Z,10.57
2022-08-18T21:59:36.221Z,10.45
2022-08-18T22:03:51.618Z,10.07
2022-08-18T22:07:55.880Z,9.07
2022-08-18T22:12:42.076Z,7.75
2022-08-18T22:16:45.482Z,6.43
2022-08-18T22:20:50.363Z,6.68
2022-08-18T22:24:56.965Z,5.03
2022-08-18T22:29:04.731Z,4.85
2022-08-18T22:33:07.494Z,4.20
2022-08-18T22:37:15.607Z,4.53
2022-08-18T22:41:24.311Z,3.88
2022-08-18T22:45:28.061Z,4.05
2022-08-18T22:49:32.320Z,3.78
2022-08-18T22:53:35.420Z,2.83
2022-08-18T22:57:40.577Z,3.25
2022-08-18T23:01:48.519Z,3.10
2022-08-18T23:05:54.530Z,2.90
2022-08-18T23:09:58.824Z,3.75
2022-08-18T23:14:03.455Z,3.53
2022-08-18T23:18:06.329Z,3.55
2022-08-18T23:22:10.079Z,3.90
2022-08-18T23:26:12.996Z,3.97
2022-08-18T23:30:17.146Z,3.80
2022-08-18T23:34:22.857Z,4.70
2022-08-18T23:38:31.470Z,5.13
2022-08-18T23:42:34.680Z,5.57
2022-08-18T23:46:39.674Z,5.50
2022-08-18T23:50:44.349Z,6.82
2022-08-18T23:54:47.098Z,6.38
2022-08-18T23:58:53.997Z,6.93
